createdAt,value
2019-03-11T00:02:25.899Z,96753.53
2019-03-11T00:04:55.351Z,96748.83
2019-03-11T00:07:24.478Z,96756.98
2019-03-11T00:09:54.741Z,96743.42
2019-03-11T00:12:33.533Z,96735.61
2019-03-11T00:15:04.403Z,96746.94
2019-03-11T00:17:36.349Z,96745.69
2019-03-11T00:20:07.651Z,96758.91
2019-03-11T00:22:36.776Z,96766.20
2019-03-11T00:25:07.750Z,96762.37
2019-03-11T00:27:36.895Z,96756.19
2019-03-11T00:30:06.841Z,96759.28
2019-03-11T00:32:36.064Z,96761.05
2019-03-11T00:35:05.628Z,96762.69
2019-03-11T00:37:34.812Z,96766.00
2019-03-11T00:40:09.519Z,96771.09
2019-03-11T00:42:40.723Z,96775.87
2019-03-11T00:45:11.270Z,96776.05
2019-03-11T00:47:40.414Z,96775.39
2019-03-11T00:50:16.781Z,96772.18
2019-03-11T00:52:51.419Z,96771.08
2019-03-11T00:55:20.593Z,96762.63
2019-03-11T00:57:51.436Z,96767.31
2019-03-11T01:00:44.008Z,96761.91
2019-03-11T01:03:33.721Z,96761.15
2019-03-11T01:06:02.839Z,96756.73
2019-03-11T01:08:32.284Z,96761.87
2019-03-11T01:11:04.966Z,96758.46
2019-03-11T01:13:36.479Z,96746.61
2019-03-11T01:16:08.046Z,96752.42
2019-03-11T01:18:46.862Z,96752.77
2019-03-11T01:21:19.109Z,96748.09
2019-03-11T01:23:48.262Z,96740.66
2019-03-11T01:26:17.341Z,96734.34
2019-03-11T01:28:46.457Z,96730.23
2019-03-11T01:31:15.525Z,96728.56
2019-03-11T01:33:46.319Z,96722.61
2019-03-11T01:36:20.115Z,96727.25
2019-03-11T01:38:50.560Z,96711.82
2019-03-11T01:41:19.742Z,96721.23
2019-03-11T01:43:50.295Z,96708.55
2019-03-11T01:46:21.101Z,96711.56
2019-03-11T01:48:53.408Z,96700.41
2019-03-11T01:51:24.908Z,96684.36
2019-03-11T01:53:53.990Z,96686.66
2019-03-11T01:56:23.099Z,96684.40
2019-03-11T01:58:52.177Z,96680.49
2019-03-11T02:01:23.044Z,96683.61
2019-03-11T02:03:55.200Z,96669.83
2019-03-11T02:06:24.356Z,96678.03
2019-03-11T02:08:53.544Z,96673.99
2019-03-11T02:11:22.634Z,96666.94
2019-03-11T02:13:53.013Z,96662.53
2019-03-11T02:16:22.268Z,96661.86
2019-03-11T02:18:51.474Z,96661.44
2019-03-11T02:21:24.578Z,96655.27
2019-03-11T02:23:53.670Z,96638.38
2019-03-11T02:26:24.794Z,96632.72
2019-03-11T02:28:53.897Z,96627.03
2019-03-11T02:31:24.347Z,96615.05
2019-03-11T02:33:53.435Z,96609.05
2019-03-11T02:36:25.130Z,96609.84
2019-03-11T02:38:55.063Z,96606.05
2019-03-11T02:41:25.649Z,96599.04
2019-03-11T02:44:13.129Z,96596.66
2019-03-11T02:46:44.252Z,96526.13
2019-03-11T02:49:13.389Z,96588.55
2019-03-11T02:51:42.505Z,96244.11
2019-03-11T02:54:12.962Z,96576.50
2019-03-11T02:56:43.810Z,96570.56
2019-03-11T02:59:15.819Z,96570.97
2019-03-11T03:02:08.123Z,96562.78
2019-03-11T03:04:43.805Z,96556.30
2019-03-11T03:07:12.978Z,96555.63
2019-03-11T03:09:42.198Z,96549.80
2019-03-11T03:12:11.407Z,96558.14
2019-03-11T03:14:42.973Z,96559.56
2019-03-11T03:17:12.111Z,96539.80
2019-03-11T03:19:42.923Z,96561.05
2019-03-11T03:22:16.349Z,96556.48
2019-03-11T03:24:46.540Z,96561.12
2019-03-11T03:27:15.741Z,96556.83
2019-03-11T03:29:46.573Z,96556.52
2019-03-11T03:32:17.280Z,96557.81
2019-03-11T03:34:52.416Z,96556.23
2019-03-11T03:37:21.509Z,96559.08
2019-03-11T03:39:50.642Z,96557.84
2019-03-11T03:42:21.838Z,96562.20
2019-03-11T03:45:25.482Z,96558.59
2019-03-11T03:48:00.333Z,96559.80
2019-03-11T03:50:49.725Z,96559.40
2019-03-11T03:53:19.242Z,96561.34
2019-03-11T03:55:51.334Z,96547.23
2019-03-11T03:58:23.053Z,96539.67
2019-03-11T04:00:52.555Z,96573.45
2019-03-11T04:03:23.068Z,96558.66
2019-03-11T04:05:57.691Z,96535.42
2019-03-11T04:08:29.358Z,96524.38
2019-03-11T04:11:00.189Z,96523.05
2019-03-11T04:13:32.149Z,96523.66
2019-03-11T04:16:04.244Z,96527.16
2019-03-11T04:19:05.243Z,96530.13
2019-03-11T04:21:34.361Z,96523.81
2019-03-11T04:24:07.975Z,96515.29
2019-03-11T04:26:41.455Z,96519.36
2019-03-11T04:29:10.614Z,96511.77
2019-03-11T04:31:43.431Z,96525.30
2019-03-11T04:34:12.863Z,96517.61
2019-03-11T04:36:42.040Z,96498.11
2019-03-11T04:39:15.823Z,96490.20
2019-03-11T04:41:46.627Z,96502.27
2019-03-11T04:44:17.822Z,96490.20
2019-03-11T04:46:46.987Z,96480.47
2019-03-11T04:52:12.568Z,96428.81
2019-03-11T04:54:43.355Z,96441.62
2019-03-11T04:57:12.519Z,96430.72
2019-03-11T04:59:41.840Z,96428.61
2019-03-11T05:02:14.643Z,96441.20
2019-03-11T05:04:44.798Z,96446.92
2019-03-11T05:07:15.102Z,96461.98
2019-03-11T05:09:53.175Z,96458.36
2019-03-11T05:12:25.957Z,96481.22
2019-03-11T05:15:01.736Z,96470.58
2019-03-11T05:17:31.010Z,96453.08
2019-03-11T05:20:00.397Z,96462.86
2019-03-11T05:22:32.538Z,96474.29
2019-03-11T05:25:06.021Z,96488.88
2019-03-11T05:27:39.658Z,96482.22
2019-03-11T05:30:13.188Z,96483.66
2019-03-11T05:32:42.340Z,96470.94
2019-03-11T05:35:11.886Z,96479.68
2019-03-11T05:37:44.294Z,96462.25
2019-03-11T05:40:17.985Z,96457.64
2019-03-11T05:42:47.163Z,96472.11
2019-03-11T05:45:18.926Z,96454.42
2019-03-11T05:47:49.242Z,96454.53
2019-03-11T05:50:20.903Z,96473.20
2019-03-11T05:52:50.347Z,96457.27
2019-03-11T05:55:22.129Z,96452.42
2019-03-11T05:57:51.586Z,96462.56
2019-03-11T06:00:27.107Z,96462.57
2019-03-11T06:02:57.405Z,96459.31
2019-03-11T06:05:30.853Z,96475.25
2019-03-11T06:08:00.411Z,96456.91
2019-03-11T06:10:32.643Z,96460.88
2019-03-11T06:13:03.355Z,96448.00
2019-03-11T06:15:32.530Z,96433.59
2019-03-11T06:18:01.760Z,96452.59
2019-03-11T06:20:55.570Z,96458.95
2019-03-11T06:23:25.684Z,96461.20
2019-03-11T06:25:54.795Z,96482.03
2019-03-11T06:28:23.905Z,96466.74
2019-03-11T06:30:53.024Z,96464.70
2019-03-11T06:33:24.629Z,96481.02
2019-03-11T06:35:59.484Z,96472.25
2019-03-11T06:38:30.924Z,96470.80
2019-03-11T06:41:09.180Z,96480.59
2019-03-11T06:43:38.379Z,96498.02
2019-03-11T06:46:09.034Z,96501.79
2019-03-11T06:48:47.322Z,96508.87
2019-03-11T06:51:17.735Z,96516.14
2019-03-11T06:53:49.204Z,96507.69
2019-03-11T06:56:24.499Z,96509.14
2019-03-11T06:58:53.605Z,96530.50
2019-03-11T07:01:24.470Z,96503.08
2019-03-11T07:03:56.690Z,96508.44
2019-03-11T07:06:30.112Z,96493.98
2019-03-11T07:08:59.316Z,96497.55
2019-03-11T07:11:30.340Z,96498.91
2019-03-11T07:14:01.924Z,96521.16
2019-03-11T07:16:31.082Z,96519.97
2019-03-11T07:19:00.230Z,96508.41
2019-03-11T07:21:29.297Z,96533.51
2019-03-11T07:23:58.399Z,96520.78
2019-03-11T07:26:28.675Z,96527.19
2019-03-11T07:28:58.115Z,96531.91
2019-03-11T07:31:32.244Z,96520.20
2019-03-11T07:34:01.621Z,96511.33
2019-03-11T07:36:30.771Z,96547.77
2019-03-11T07:39:05.122Z,96535.75
2019-03-11T07:41:41.552Z,96530.45
2019-03-11T07:44:10.993Z,96539.75
2019-03-11T07:46:42.163Z,96556.99
2019-03-11T07:49:12.351Z,96549.52
2019-03-11T07:51:46.884Z,96563.82
2019-03-11T07:54:17.514Z,96569.23
2019-03-11T07:56:49.242Z,96584.03
2019-03-11T07:59:18.366Z,96555.84
2019-03-11T08:01:51.520Z,96595.82
2019-03-11T08:04:25.578Z,96616.34
2019-03-11T08:06:54.707Z,96620.59
2019-03-11T08:09:37.263Z,96619.16
2019-03-11T08:11:59.956Z,96610.92
2019-03-11T08:14:31.735Z,96626.18
2019-03-11T08:17:01.231Z,96621.98
2019-03-11T08:19:35.994Z,96625.91
2019-03-11T08:22:06.943Z,96615.23
2019-03-11T08:24:36.806Z,96601.80
2019-03-11T08:27:07.996Z,96603.58
2019-03-11T08:29:39.218Z,96605.75
2019-03-11T08:32:12.471Z,96613.23
2019-03-11T08:34:47.924Z,96616.61
2019-03-11T08:37:19.480Z,96624.92
2019-03-11T08:39:51.067Z,96623.90
2019-03-11T08:42:20.236Z,96624.97
2019-03-11T08:44:49.649Z,96627.56
2019-03-11T08:47:21.225Z,96626.39
2019-03-11T08:50:14.754Z,96632.48
2019-03-11T08:52:23.480Z,96621.99
2019-03-11T08:54:54.008Z,96625.67
2019-03-11T08:57:27.916Z,96623.38
2019-03-11T09:00:00.649Z,96637.09
2019-03-11T09:02:29.767Z,96314.25
2019-03-11T09:04:59.999Z,96632.52
2019-03-11T09:07:29.387Z,96630.39
2019-03-11T09:10:00.894Z,96625.95
2019-03-11T09:12:33.386Z,96632.24
2019-03-11T09:15:04.589Z,96632.64
2019-03-11T09:17:33.855Z,96632.72
2019-03-11T09:20:05.934Z,96634.40
2019-03-11T09:22:38.382Z,96629.91
2019-03-11T09:25:10.901Z,96636.91
2019-03-11T09:27:40.197Z,96627.78
2019-03-11T09:30:22.543Z,96637.17
2019-03-11T09:32:54.285Z,96624.14
2019-03-11T09:35:23.680Z,96632.48
2019-03-11T09:37:54.972Z,96634.64
2019-03-11T09:40:24.091Z,96625.64
2019-03-11T09:43:00.740Z,96643.14
2019-03-11T09:45:29.878Z,96646.91
2019-03-11T09:47:59.105Z,96647.27
2019-03-11T09:50:30.152Z,96640.77
2019-03-11T09:52:59.235Z,96646.77
2019-03-11T09:55:28.536Z,96645.54
2019-03-11T09:58:00.393Z,96628.94
2019-03-11T10:00:30.983Z,96657.27
2019-03-11T10:03:00.297Z,96660.48
2019-03-11T10:05:29.754Z,96658.38
2019-03-11T10:07:59.347Z,96664.52
2019-03-11T10:10:28.514Z,96674.70
2019-03-11T10:12:57.937Z,96687.34
2019-03-11T10:15:30.501Z,96682.74
2019-03-11T10:18:14.724Z,96683.20
2019-03-11T10:20:48.467Z,96704.53
2019-03-11T10:23:31.803Z,96690.20
2019-03-11T10:25:56.838Z,96686.97
2019-03-11T10:28:26.294Z,96671.24
2019-03-11T10:30:59.718Z,96687.22
2019-03-11T10:33:37.624Z,96684.41
2019-03-11T10:36:14.098Z,96692.66
2019-03-11T10:38:43.897Z,96699.19
2019-03-11T10:41:22.471Z,96706.48
2019-03-11T10:43:52.197Z,96713.52
2019-03-11T10:46:21.377Z,96704.31
2019-03-11T10:48:50.648Z,96694.41
2019-03-11T10:51:19.836Z,96697.55
2019-03-11T10:53:52.162Z,96699.67
2019-03-11T10:56:27.355Z,96706.19
2019-03-11T10:58:57.653Z,96717.42
2019-03-11T11:01:27.036Z,96710.89
2019-03-11T11:03:58.237Z,96716.64
2019-03-11T11:06:29.283Z,96736.20
2019-03-11T11:09:04.228Z,96739.35
2019-03-11T11:11:36.901Z,96739.78
2019-03-11T11:14:07.674Z,96724.45
2019-03-11T11:16:39.092Z,96736.88
2019-03-11T11:19:08.389Z,96740.75
2019-03-11T11:21:39.156Z,96730.41
2019-03-11T11:24:08.279Z,96717.73
2019-03-11T11:26:37.536Z,96734.78
2019-03-11T11:29:07.818Z,96737.49
2019-03-11T11:31:36.997Z,96729.73
2019-03-11T11:34:11.447Z,96744.67
2019-03-11T11:36:40.624Z,96757.89
2019-03-11T11:39:10.148Z,96751.92
2019-03-11T11:41:42.450Z,96751.76
2019-03-11T11:44:19.153Z,96768.17
2019-03-11T11:46:58.857Z,96764.77
2019-03-11T11:49:34.138Z,96772.52
2019-03-11T11:52:08.032Z,96769.03
2019-03-11T11:54:37.818Z,96772.54
2019-03-11T11:57:21.626Z,96779.47
2019-03-11T11:59:57.486Z,96779.36
2019-03-11T12:02:27.196Z,96791.42
2019-03-11T12:04:56.630Z,96766.43
2019-03-11T12:07:27.832Z,96777.59
2019-03-11T12:10:01.955Z,96785.56
2019-03-11T12:12:32.384Z,96774.78
2019-03-11T12:15:04.582Z,96778.28
2019-03-11T12:17:33.817Z,96802.27
2019-03-11T12:20:02.930Z,96769.43
2019-03-11T12:22:36.456Z,96776.30
2019-03-11T12:25:13.103Z,96774.34
2019-03-11T12:27:52.721Z,96777.94
2019-03-11T12:30:18.619Z,96765.80
2019-03-11T12:32:54.311Z,96775.16
2019-03-11T12:35:25.927Z,96767.20
2019-03-11T12:38:01.396Z,96771.89
2019-03-11T12:40:32.184Z,96761.66
2019-03-11T12:43:03.253Z,96756.58
2019-03-11T12:45:32.783Z,96773.34
2019-03-11T12:48:04.651Z,96764.75
2019-03-11T12:50:35.107Z,96766.52
2019-03-11T12:53:04.344Z,96197.55
2019-03-11T12:55:33.546Z,96783.11
2019-03-11T12:58:02.678Z,96774.64
2019-03-11T13:00:33.717Z,96781.61
2019-03-11T13:03:02.933Z,96784.03
2019-03-11T13:05:32.260Z,96780.95
2019-03-11T13:08:01.809Z,96764.73
2019-03-11T13:10:30.947Z,96773.59
2019-03-11T13:13:01.061Z,95390.73
2019-03-11T13:15:30.630Z,96790.48
2019-03-11T13:18:38.272Z,96791.04
2019-03-11T13:21:29.430Z,96805.34
2019-03-11T13:24:01.043Z,96792.27
2019-03-11T13:26:33.238Z,96806.69
2019-03-11T13:29:02.764Z,96798.57
2019-03-11T13:31:32.948Z,96817.53
2019-03-11T13:34:02.112Z,96815.77
2019-03-11T13:36:33.674Z,96816.47
2019-03-11T13:39:04.441Z,96811.91
2019-03-11T13:41:37.805Z,96806.13
2019-03-11T13:44:10.347Z,96819.28
2019-03-11T13:46:48.901Z,96817.87
2019-03-11T13:49:24.033Z,96843.55
2019-03-11T13:51:53.199Z,96844.08
2019-03-11T13:54:23.467Z,96842.39
2019-03-11T13:56:54.195Z,96853.92
2019-03-11T13:59:24.719Z,96847.16
2019-03-11T14:01:56.737Z,96846.67
2019-03-11T14:04:28.357Z,96845.50
2019-03-11T14:06:57.470Z,96850.85
2019-03-11T14:09:28.318Z,96855.34
2019-03-11T14:11:57.513Z,96851.78
2019-03-11T14:14:27.083Z,96852.83
2019-03-11T14:16:57.961Z,96842.39
2019-03-11T14:19:33.242Z,96853.59
2019-03-11T14:22:04.848Z,96853.22
2019-03-11T14:24:35.198Z,96861.61
2019-03-11T14:27:04.282Z,96874.44
2019-03-11T14:29:34.896Z,96881.16
2019-03-11T14:32:05.457Z,96873.66
2019-03-11T14:34:42.201Z,96881.98
2019-03-11T14:37:13.394Z,96881.52
2019-03-11T14:39:43.091Z,96884.94
2019-03-11T14:42:14.218Z,95561.27
2019-03-11T14:44:43.414Z,96910.61
2019-03-11T14:47:12.581Z,96902.89
2019-03-11T14:49:41.737Z,96902.60
2019-03-11T14:52:12.214Z,96902.23
2019-03-11T14:54:41.848Z,96910.00
2019-03-11T14:57:11.502Z,96900.01
2019-03-11T14:59:44.358Z,96895.27
2019-03-11T15:02:14.829Z,96889.08
2019-03-11T15:04:44.090Z,96902.33
2019-03-11T15:07:13.386Z,96893.68
2019-03-11T15:09:51.126Z,96874.56
2019-03-11T15:12:16.246Z,96909.98
2019-03-11T15:14:45.179Z,96904.83
2019-03-11T15:17:14.381Z,96908.30
2019-03-11T15:19:43.668Z,96895.88
2019-03-11T15:22:12.994Z,96892.54
2019-03-11T15:24:42.308Z,96891.88
2019-03-11T15:27:12.155Z,96917.42
2019-03-11T15:29:41.473Z,96632.31
2019-03-11T15:32:10.727Z,96924.15
2019-03-11T15:34:40.339Z,96915.00
2019-03-11T15:37:12.683Z,96923.75
2019-03-11T15:39:43.419Z,96925.69
2019-03-11T15:42:17.178Z,96939.09
2019-03-11T15:44:47.857Z,96950.27
2019-03-11T15:47:16.985Z,96973.68
2019-03-11T15:49:46.248Z,96973.61
2019-03-11T15:52:16.449Z,97004.75
2019-03-11T15:54:45.591Z,97013.34
2019-03-11T15:57:16.643Z,97001.84
2019-03-11T15:59:45.914Z,96984.72
2019-03-11T16:02:15.532Z,96982.16
2019-03-11T16:04:44.638Z,96983.36
2019-03-11T16:07:15.910Z,96969.64
2019-03-11T16:09:47.752Z,96961.70
2019-03-11T16:12:17.257Z,96948.39
2019-03-11T16:14:49.631Z,96957.02
2019-03-11T16:17:20.532Z,96955.47
2019-03-11T16:19:50.886Z,96964.55
2019-03-11T16:22:25.172Z,96964.03
2019-03-11T16:24:52.274Z,96968.05
2019-03-11T16:27:23.346Z,96977.91
2019-03-11T16:29:54.363Z,96977.89
2019-03-11T16:32:23.753Z,96976.53
2019-03-11T16:34:55.399Z,96971.78
2019-03-11T16:37:24.911Z,96971.80
2019-03-11T16:39:58.632Z,96985.52
2019-03-11T16:42:30.759Z,96982.97
2019-03-11T16:45:00.599Z,96988.30
2019-03-11T16:47:30.905Z,96970.34
2019-03-11T16:50:01.776Z,96981.92
2019-03-11T16:52:31.488Z,96976.59
2019-03-11T16:55:00.839Z,96979.75
2019-03-11T16:57:29.919Z,96980.47
2019-03-11T17:00:00.602Z,96980.42
2019-03-11T17:02:29.916Z,96986.54
2019-03-11T17:04:59.067Z,96989.09
2019-03-11T17:07:28.459Z,96988.55
2019-03-11T17:10:00.168Z,96996.72
2019-03-11T17:12:31.126Z,96993.42
2019-03-11T17:15:00.325Z,96995.80
2019-03-11T17:17:32.074Z,96997.91
2019-03-11T17:20:02.486Z,97000.08
2019-03-11T17:22:35.810Z,96996.13
2019-03-11T17:25:13.811Z,97005.45
2019-03-11T17:27:45.424Z,97005.63
2019-03-11T17:30:15.825Z,96705.05
2019-03-11T17:32:45.045Z,97016.72
2019-03-11T17:35:17.034Z,97023.23
2019-03-11T17:37:46.262Z,97031.08
2019-03-11T17:40:16.554Z,97033.24
2019-03-11T17:42:45.815Z,97035.98
2019-03-11T17:45:16.821Z,97031.09
2019-03-11T17:47:46.000Z,97047.58
2019-03-11T17:50:18.014Z,97048.41
2019-03-11T17:52:47.768Z,97059.75
2019-03-11T17:55:20.807Z,97055.86
2019-03-11T17:57:50.429Z,97057.09
2019-03-11T18:00:26.219Z,97062.53
2019-03-11T18:02:56.982Z,97074.66
2019-03-11T18:05:29.378Z,97079.03
2019-03-11T18:07:58.487Z,97087.43
2019-03-11T18:10:28.842Z,97093.57
2019-03-11T18:12:58.932Z,97098.70
2019-03-11T18:15:28.052Z,97092.82
2019-03-11T18:17:59.700Z,97101.42
2019-03-11T18:20:28.935Z,97102.14
2019-03-11T18:22:59.225Z,97098.64
2019-03-11T18:25:32.479Z,97098.63
2019-03-11T18:28:04.318Z,97095.49
2019-03-11T18:30:33.673Z,97107.09
2019-03-11T18:33:02.863Z,97103.20
2019-03-11T18:35:35.366Z,97105.20
2019-03-11T18:38:05.070Z,97103.93
2019-03-11T18:40:34.516Z,97106.78
2019-03-11T18:43:03.819Z,97117.48
2019-03-11T18:45:34.770Z,97114.30
2019-03-11T18:48:03.921Z,97122.09
2019-03-11T18:50:36.029Z,97117.23
2019-03-11T18:53:05.608Z,97129.39
2019-03-11T18:55:34.803Z,97127.73
2019-03-11T18:58:07.726Z,97126.09
2019-03-11T19:00:36.955Z,97138.06
2019-03-11T19:03:06.083Z,97140.59
2019-03-11T19:05:36.617Z,97148.53
2019-03-11T19:08:06.088Z,97153.04
2019-03-11T19:10:36.858Z,97156.12
2019-03-11T19:13:06.058Z,97155.20
2019-03-11T19:15:38.613Z,97152.02
2019-03-11T19:18:10.219Z,97155.17
2019-03-11T19:20:39.430Z,97148.05
2019-03-11T19:23:08.569Z,97160.98
2019-03-11T19:25:37.866Z,97152.29
2019-03-11T19:28:11.322Z,97155.53
2019-03-11T19:30:41.723Z,97158.17
2019-03-11T19:33:13.924Z,97164.03
2019-03-11T19:35:45.801Z,97176.04
2019-03-11T19:38:15.191Z,97182.42
2019-03-11T19:40:47.499Z,97180.55
2019-03-11T19:43:16.814Z,97179.36
2019-03-11T19:45:45.947Z,97184.83
2019-03-11T19:48:15.987Z,97177.73
2019-03-11T19:50:48.168Z,97182.42
2019-03-11T19:53:18.620Z,97182.38
2019-03-11T19:55:47.966Z,97170.70
2019-03-11T19:58:21.303Z,97182.95
2019-03-11T20:00:50.586Z,97179.04
2019-03-11T20:03:26.885Z,97182.28
2019-03-11T20:05:54.018Z,97197.11
2019-03-11T20:08:23.481Z,97195.75
2019-03-11T20:10:52.816Z,97191.69
2019-03-11T20:13:23.335Z,97192.14
2019-03-11T20:15:53.978Z,97199.30
2019-03-11T20:18:27.267Z,97207.25
2019-03-11T20:20:57.152Z,97208.20
2019-03-11T20:23:26.316Z,97201.58
2019-03-11T20:26:02.281Z,97215.66
2019-03-11T20:28:33.114Z,97207.34
2019-03-11T20:31:02.501Z,97226.06
2019-03-11T20:33:34.966Z,97209.14
2019-03-11T20:36:04.204Z,97216.89
2019-03-11T20:38:33.666Z,96289.45
2019-03-11T20:41:02.995Z,97242.84
2019-03-11T20:43:35.344Z,97221.11
2019-03-11T20:46:04.685Z,97235.70
2019-03-11T20:48:37.399Z,97248.44
2019-03-11T20:51:10.417Z,97237.58
2019-03-11T20:53:39.592Z,97236.69
2019-03-11T20:56:11.128Z,97249.44
2019-03-11T20:58:40.377Z,97228.00
2019-03-11T21:01:15.139Z,97248.04
2019-03-11T21:03:44.843Z,97252.34
2019-03-11T21:06:14.199Z,97245.58
2019-03-11T21:08:50.546Z,97263.84
2019-03-11T21:11:19.838Z,97259.59
2019-03-11T21:13:49.171Z,97263.34
2019-03-11T21:16:18.403Z,97273.45
2019-03-11T21:18:47.703Z,97273.68
2019-03-11T21:21:19.721Z,97256.36
2019-03-11T21:24:01.550Z,97269.10
2019-03-11T21:26:24.937Z,97277.05
2019-03-11T21:28:57.425Z,97266.05
2019-03-11T21:31:26.849Z,97266.26
2019-03-11T21:33:58.871Z,97275.53
2019-03-11T21:36:30.248Z,97282.97
2019-03-11T21:39:02.698Z,97273.36
2019-03-11T21:41:33.304Z,97274.24
2019-03-11T21:44:03.072Z,97287.25
2019-03-11T21:46:33.723Z,97281.27
2019-03-11T21:49:03.177Z,97278.66
2019-03-11T21:51:32.381Z,97267.17
2019-03-11T21:54:01.706Z,97291.09
2019-03-11T21:56:30.964Z,97288.30
2019-03-11T21:59:00.285Z,97295.58
2019-03-11T22:01:29.712Z,97300.20
2019-03-11T22:04:00.019Z,97298.27
2019-03-11T22:06:34.508Z,97299.16
2019-03-11T22:09:04.902Z,97312.55
2019-03-11T22:11:34.388Z,97304.50
2019-03-11T22:14:08.700Z,97308.31
2019-03-11T22:16:37.646Z,97304.30
2019-03-11T22:19:06.852Z,97332.21
2019-03-11T22:21:36.045Z,97300.95
2019-03-11T22:24:08.765Z,97316.59
2019-03-11T22:26:38.019Z,97318.23
2019-03-11T22:29:07.170Z,97314.59
2019-03-11T22:31:40.337Z,97316.11
2019-03-11T22:34:09.521Z,97325.87
2019-03-11T22:36:41.195Z,97314.78
2019-03-11T22:39:10.556Z,97313.09
2019-03-11T22:41:41.308Z,97313.97
2019-03-11T22:44:10.576Z,97321.24
2019-03-11T22:46:40.051Z,96983.89
2019-03-11T22:49:12.341Z,97320.52
2019-03-11T22:51:41.492Z,97322.85
2019-03-11T22:54:10.789Z,97321.84
2019-03-11T22:56:41.006Z,97327.30
2019-03-11T22:59:11.399Z,97326.88
2019-03-11T23:01:45.590Z,97325.86
2019-03-11T23:04:15.118Z,97327.51
2019-03-11T23:06:45.742Z,97316.09
2019-03-11T23:09:14.988Z,97330.10
2019-03-11T23:11:44.220Z,97316.41
2019-03-11T23:14:14.511Z,97317.93
2019-03-11T23:16:46.823Z,97307.62
2019-03-11T23:19:18.888Z,97320.11
2019-03-11T23:21:48.229Z,97320.41
2019-03-11T23:24:17.349Z,97334.30
2019-03-11T23:26:46.499Z,97339.15
2019-03-11T23:29:17.303Z,97336.59
2019-03-11T23:31:51.437Z,97336.96
2019-03-11T23:34:20.538Z,97340.99
2019-03-11T23:36:49.809Z,97349.37
2019-03-11T23:39:18.943Z,97356.97
2019-03-11T23:41:49.179Z,97354.71
2019-03-11T23:44:20.033Z,97352.95
2019-03-11T23:46:50.771Z,97352.41
2019-03-11T23:49:22.348Z,97360.65
2019-03-11T23:51:53.039Z,97364.68
2019-03-11T23:54:22.204Z,97365.20
2019-03-11T23:56:51.373Z,97369.94
2019-03-11T23:59:21.618Z,97365.50
